Terminal Aerodrome Forecast
Issued by NWS

Home | Current Version | Previous Version | Text Only | Print | Product List | Glossary On
Versions: 1 2 3 4 5 6 7 8 9 10 11 12
000
FTUS46 KSTO 061700
TAFSMF
TAF
KSMF 061736Z 0618/0718 VRB04KT P6SM SKC
      TEMPO 0620/0624 32008KT=

USA.gov is the U.S. government's official web portal to all federal, state and local government web resources and services.